Main page
METAR-TAF:

METAR-TAF

Airports :

Hof–Plauen Airport

Hof, Germany

latitude: 50-19N, longitude: 011-53E, elevation: 567 m

Current weather observation

The report was made 6 hours and 2 minutes ago, at 17:50 UTC
Wind 4 kt from the Southwest
Temperature 25°C
Humidity 30%
Pressure 1013 hPa
Visibility 10 km or more
no clouds below 1500 m and no cumulonimbus

METAR: EDQM 201750Z 23004KT CAVOK 25/06 Q1013

Time: 01:52 (23:52 UTC)

Forecast

The report was made 6 hours and 52 minutes ago, at 17:00 UTC
Forecast valid from 20 at 18 UTC to 21 at 03 UTC
Wind 3 kt from variable directions
Visibility 10 km or more
no clouds below 1500 m and no cumulonimbus

TAF: EDQM 201700Z 2018/2103 VRB03KT CAVOK

Weather observations and forecasts of more than 4000 airports (METAR and TAF reports).

The available stations are represented by yellow and red dots on the map.

Hover mouse over dot to see the name of the station.

Then click to see weather observations and forecasts.

To change the map : click on the green buttons with a black cross to zoom in, on the green button with a dash to zoom out, or on the green arrows for adjacent maps.


METAR-TAF: